Data for 06/25/2009

Time Sea-Level Adjusted Pressure Absolute Pressure Temperature Relative Humidity Dew Point   
(mb) (inHg) (mb) (inHg) (C) (F) (%) (C) (F)
00:05 1017 30.03 847 25.01 19.4 66.8 36 3.9 38.9
00:10 1017 30.03 847 25.01 19.7 67.4 35 4.1 39.4
00:15 1017 30.03 847 25.01 19.7 67.5 35 3.8 38.8
00:20 1017 30.03 847 25.01 20 67.9 34 3.7 38.7
00:25 1017 30.03 846 24.98 20 68.1 34 3.7 38.6
00:30 1017 30.03 846 24.98 20 67.9 34 3.8 38.8
00:35 1017 30.03 846 24.98 19.9 67.7 34 3.6 38.4
00:40 1017 30.03 846 24.98 19.9 67.9 34 3.6 38.6
00:45 1017 30.03 846 24.98 19.9 67.7 33 3.5 38.3
00:50 1017 30.03 846 24.98 19.8 67.7 34 3.6 38.4
00:55 1017 30.03 846 24.98 19.5 67.2 37 4.6 40.3
01:00 1017 30.03 846 24.98 19.4 67 34 3.5 38.3
01:05 1017 30.03 846 24.98 19.7 67.5 33 3.2 37.7
01:10 1017 30.03 846 24.98 20.3 68.5 32 3.1 37.6
01:15 1017 30.03 847 25.01 20.5 68.9 31 2.8 37.1
01:20 1017 30.03 846 24.98 20.9 69.6 28 2.1 35.7
01:25 1017 30.03 846 24.98 21.4 70.4 28 2.3 36.2
01:30 1017 30.03 846 24.98 21.4 70.6 28 2.3 36.2
01:35 1017 30.03 846 24.98 21.5 70.6 28 2.3 36.1
01:40 1017 30.03 846 24.98 21.3 70.3 29 2.7 36.9
01:45 1017 30.03 846 24.98 20.9 69.6 30 2.6 36.7
01:50 1017 30.03 846 24.98 20.7 69.2 30 2.6 36.7
01:55 1017 30.03 846 24.98 20.5 68.8 31 2.8 37
02:00 1017 30.03 846 24.98 20.6 69 31 3 37.3
02:05 1017 30.03 846 24.98 20.7 69.2 30 2.6 36.7
02:10 1017 30.03 846 24.98 20.9 69.6 28 2.1 35.7
02:15 1017 30.03 846 24.98 21.1 70 27 1.8 35.2
02:20 1017 30.03 846 24.98 21.2 70.2 29 2.4 36.3
02:25 1017 30.03 846 24.98 21.1 70.1 29 2.7 36.9
02:30 1017 30.03 846 24.98 21 69.9 28 1.9 35.5
02:35 1017 30.03 846 24.98 20.9 69.7 28 2.1 35.7
02:40 1017 30.03 846 24.98 20.7 69.2 28 1.7 35.1
02:45 1017 30.03 846 24.98 20.7 69.3 29 2.3 36.2
02:50 1017 30.03 846 24.98 20.7 69.3 28 1.9 35.5
02:55 1017 30.03 846 24.98 20.3 68.6 30 2.6 36.6
03:00 1017 30.03 846 24.98 19.7 67.5 32 2.8 37
03:05 1017 30.03 846 24.98 19.3 66.7 32 2.4 36.4
03:10 1017 30.03 846 24.98 19.3 66.7 33 2.7 36.8
03:15 1017 30.03 846 24.98 19.4 66.9 33 2.9 37.2
03:20 1017 30.03 846 24.98 19.4 67 33 2.9 37.3
03:25 1017 30.03 846 24.98 19.4 66.9 32 2.5 36.5
03:30 1017 30.03 846 24.98 19.3 66.7 31 1.9 35.5
03:35 1017 30.03 846 24.98 19.3 66.7 31 1.7 35
03:40 1017 30.03 846 24.98 19.4 66.9 31 1.8 35.3
03:45 1017 30.03 846 24.98 19.4 66.9 31 2 35.6
03:50 1017 30.03 846 24.98 19.2 66.5 32 2.1 35.8
03:55 1017 30.03 846 24.98 18.9 66 32 2.1 35.9
04:00 1017 30.03 846 24.98 18.7 65.6 32 1.8 35.2
04:05 1017 30.03 846 24.98 18.6 65.5 33 1.9 35.5
04:10 1017 30.03 846 24.98 18.6 65.4 32 1.9 35.3
04:15 1017 30.03 846 24.98 18.6 65.5 33 2 35.6
04:20 1017 30.03 846 24.98 18.6 65.6 32 1.8 35.3
04:25 1017 30.03 846 24.98 18.5 65.4 32 1.9 35.4
04:30 1017 30.03 846 24.98 18.3 64.9 33 1.9 35.4
04:35 1017 30.03 846 24.98 18.3 64.9 32 1.6 34.9
04:40 1017 30.03 846 24.98 18.2 64.8 34 2.3 36.2
04:45 1017 30.03 846 24.98 18.1 64.5 34 2 35.5
04:50 1017 30.03 846 24.98 18.4 65.1 32 1.7 35
04:55 1017 30.03 846 24.98 18.2 64.8 33 1.9 35.4
05:00 1017 30.03 846 24.98 18.3 64.9 33 2 35.6
05:05 1017 30.03 846 24.98 17.9 64.2 34 1.8 35.3
05:10 1017 30.03 846 24.98 18.3 64.9 32 1.5 34.7
05:15 1017 30.03 846 24.98 18.7 65.6 32 2 35.6
05:20 1017 30.03 846 24.98 18.1 64.5 33 1.8 35.2
05:25 1017 30.03 846 24.98 18 64.4 32 1.4 34.5
05:30 1017 30.03 846 24.98 18.4 65 32 1.5 34.8
05:35 1017 30.03 846 24.98 18.7 65.6 32 1.6 34.9
05:40 1017 30.03 846 24.98 18.4 65.1 33 2.1 35.8
05:45 1017 30.03 846 24.98 17.9 64.3 35 2.4 36.3
05:50 1017 30.03 846 24.98 17.7 63.8 37 2.8 37
05:55 1017 30.03 846 24.98 17.4 63.3 35 1.8 35.3
06:00 1017 30.03 846 24.98 18 64.4 36 2.8 37.1
06:05 1017 30.03 846 24.98 17.9 64.3 36 2.9 37.1
06:10 1017 30.03 846 24.98 17.2 62.9 39 3.3 37.9
06:15 1017 30.03 846 24.98 16.9 62.4 38 2.6 36.8
06:20 1017 30.03 846 24.98 17.2 63 38 2.7 36.9
06:25 1017 30.03 846 24.98 17.6 63.7 37 2.8 37
06:30 1017 30.03 846 24.98 18 64.4 35 2.5 36.6
06:35 1017 30.03 846 24.98 18.4 65.2 35 2.7 36.9
06:40 1017 30.03 846 24.98 18.5 65.3 40 4.8 40.7
06:45 1017 30.03 846 24.98 18.4 65.1 39 4.2 39.6
06:50 1017 30.03 846 24.98 18.2 64.8 35 2.8 37
06:55 1017 30.03 846 24.98 18.3 64.9 38 3.7 38.7
07:00 1017 30.03 846 24.98 18.2 64.7 38 3.7 38.7
07:05 1017 30.03 846 24.98 18.3 65 39 4.4 39.9
07:10 1017 30.03 846 24.98 18.5 65.2 36 3.4 38.1
07:15 1017 30.03 846 24.98 18.6 65.5 34 2.4 36.4
07:20 1017 30.03 846 24.98 19.1 66.3 36 4 39.2
07:25 1017 30.03 846 24.98 19.5 67.1 34 3.3 38
07:30 1017 30.03 846 24.98 20.1 68.2 37 5.2 41.3
07:35 1017 30.03 846 24.98 20.7 69.2 32 3.4 38
07:40 1017 30.03 846 24.98 21.4 70.4 32 4.1 39.3
07:45 1017 30.03 846 24.98 21.6 70.8 32 4.3 39.7
07:50 1017 30.03 846 24.98 21.6 70.9 33 4.6 40.4
07:55 1017 30.03 846 24.98 21.9 71.4 32 4.4 40
08:00 1017 30.03 846 24.98 22.6 72.7 31 4.8 40.6
08:05 1017 30.03 846 24.98 23.1 73.6 32 5.7 42.2
08:10 1017 30.03 846 24.98 22.6 72.7 35 6.6 43.8
08:15 1017 30.03 846 24.98 22.1 71.8 37 6.8 44.2
08:20 1017 30.03 846 24.98 22.4 72.3 38 7.5 45.5
08:25 1017 30.03 846 24.98 21.8 71.2 33 4.8 40.7
08:30 1017 30.03 846 24.98 21.4 70.5 34 5 41
08:35 1017 30.03 846 24.98 21.6 70.9 34 5.2 41.4
08:40 1017 30.03 846 24.98 22 71.6 34 5.5 42
08:45 1017 30.03 846 24.98 21.9 71.4 34 5.5 42
08:50 1017 30.03 846 24.98 22.2 71.9 34 5.6 42.1
08:55 1017 30.03 846 24.98 22.5 72.5 33 5.7 42.3
09:00 1017 30.03 846 24.98 22.8 73 32 5.6 42
09:05 1017 30.03 846 24.98 23.3 73.9 31 5.5 41.9
09:10 1017 30.03 846 24.98 24.5 76 29 5.4 41.7
09:15 1017 30.03 846 24.98 24.3 75.8 29 5.2 41.3
09:20 1017 30.03 846 24.98 24.5 76.1 26 4 39.2
09:25 1017 30.03 846 24.98 24.8 76.6 29 5.6 42.1
09:30 1017 30.03 846 24.98 24.9 76.8 24 3.3 37.9
09:35 1017 30.03 846 24.98 24 75.3 27 4.3 39.8
09:40 1017 30.03 846 24.98 23.6 74.5 26 3.4 38.2
09:45 1017 30.03 846 24.98 23.8 74.9 27 4.1 39.4
09:50 1017 30.03 846 24.98 24.5 76.1 26 4.1 39.4
09:55 1017 30.03 846 24.98 25.5 77.8 24 3.8 38.8
10:00 1017 30.03 846 24.98 25.9 78.6 23 3.5 38.4
10:05 1017 30.03 846 24.98 25.7 78.3 23 3.5 38.3
10:10 1017 30.03 846 24.98 25.9 78.5 24 3.9 39.1
10:15 1017 30.03 846 24.98 26.8 80.2 23 4.1 39.4
10:20 1016 30 846 24.98 27.7 81.8 20 3.2 37.8
10:25 1016 30 846 24.98 28.3 83 20 3.6 38.4
10:30 1016 30 845 24.95 28.8 83.9 22 5.4 41.8
10:35 1016 30 845 24.95 28.6 83.5 24 6.5 43.7
10:40 1016 30 845 24.95 28.6 83.5 24 6.4 43.5
10:45 1016 30 845 24.95 28.8 83.9 22 5 41
10:50 1016 30 845 24.95 29.5 85.2 23 6.4 43.4
10:55 1016 30 845 24.95 29.3 84.7 20 4.4 39.9
11:00 1016 30 845 24.95 29.4 84.9 22 5.8 42.5
11:05 1016 30 845 24.95 29.3 84.7 21 5.4 41.7
11:10 1016 30 845 24.95 30.2 86.3 19 4.4 40
11:15 1016 30 845 24.95 30.9 87.6 16 2.8 37
11:20 1016 30 845 24.95 30.3 86.6 19 4.1 39.4
11:25 1016 30 845 24.95 30.2 86.3 17 3.1 37.6
11:30 1016 30 845 24.95 30.3 86.6 18 3.6 38.5
11:35 1016 30 845 24.95 30.1 86.2 18 3.9 39
11:40 1016 30 845 24.95 30.8 87.4 17 3.6 38.5
11:45 1016 30 845 24.95 31.5 88.6 14 0.8 33.4
11:50 1015 29.97 845 24.95 31.3 88.3 14 1.3 34.3
11:55 1015 29.97 845 24.95 30.9 87.6 15 1.2 34.2
12:00 1015 29.97 845 24.95 30.2 86.4 18 3.4 38.1
12:05 1015 29.97 845 24.95 30.7 87.2 16 2.2 36
12:10 1015 29.97 845 24.95 30.7 87.2 16 2.6 36.8
12:15 1015 29.97 845 24.95 30.2 86.4 17 2.7 36.8
12:20 1015 29.97 845 24.95 30.4 86.6 18 3.8 38.9
12:25 1015 29.97 845 24.95 30.1 86.3 17 2.9 37.3
12:30 1015 29.97 845 24.95 30 86.1 18 3.2 37.7
12:35 1015 29.97 845 24.95 29.6 85.2 21 5.6 42.1
12:40 1015 29.97 845 24.95 29.2 84.5 20 4.1 39.4
12:45 1015 29.97 845 24.95 29.9 85.7 19 4.1 39.3
12:50 1015 29.97 845 24.95 30.2 86.4 19 4.7 40.4
12:55 1016 30 845 24.95 29.7 85.4 18 3 37.5
13:00 1015 29.97 845 24.95 29.8 85.6 16 2 35.6
13:05 1015 29.97 845 24.95 29.5 85.1 16 1 33.9
13:10 1015 29.97 844 24.92 29.7 85.4 15 0.8 33.4
13:15 1015 29.97 844 24.92 29.6 85.3 15 1 33.7
13:20 1015 29.97 844 24.92 29.5 85.1 14 -0.6 30.9
13:25 1015 29.97 844 24.92 29.7 85.4 15 0.4 32.7
13:30 1015 29.97 844 24.92 29.9 85.9 14 -0.4 31.4
13:35 1015 29.97 844 24.92 30.3 86.5 12 -1.7 28.9
13:40 1015 29.97 844 24.92 30.4 86.8 12 -1.3 29.7
13:45 1015 29.97 844 24.92 30.7 87.3 13 -0.7 30.8
13:50 1015 29.97 844 24.92 30.5 87 14 0 32.1
13:55 1015 29.97 844 24.92 30.7 87.3 14 0.4 32.8
14:00 1015 29.97 844 24.92 30.2 86.4 14 -0 32
14:05 1015 29.97 844 24.92 29.7 85.5 15 0.8 33.4
14:10 1015 29.97 844 24.92 29.3 84.8 15 0.8 33.4
14:15 1015 29.97 844 24.92 29.4 84.9 16 1 33.7
14:20 1015 29.97 844 24.92 29.7 85.5 15 0.6 33.1
14:25 1015 29.97 844 24.92 30.3 86.5 12 -1.9 28.6
14:30 1015 29.97 844 24.92 30.7 87.3 11 -2.4 27.7
14:35 1015 29.97 844 24.92 30.5 86.8 13 -0.6 30.8
14:40 1015 29.97 844 24.92 30.6 87.1 13 -0.1 31.8
14:45 1015 29.97 844 24.92 30.5 86.9 14 0.8 33.4
14:50 1015 29.97 844 24.92 28.7 83.7 18 2.1 35.8
14:55 1015 29.97 844 24.92 27.5 81.4 20 2.9 37.3
15:00 1015 29.97 844 24.92 26.8 80.2 20 2.4 36.3
15:05 1015 29.97 844 24.92 26.8 80.3 21 2.9 37.3
15:10 1015 29.97 844 24.92 27 80.5 19 1.8 35.2
15:15 1015 29.97 844 24.92 26.9 80.3 21 3 37.5
15:20 1015 29.97 844 24.92 26.3 79.4 22 3.5 38.2
15:25 1015 29.97 844 24.92 26.3 79.3 22 3.1 37.5
15:30 1015 29.97 844 24.92 26 78.8 23 3.8 38.8
15:35 1015 29.97 844 24.92 25.4 77.8 22 2.5 36.4
15:40 1015 29.97 844 24.92 25.5 77.8 22 2.6 36.7
15:45 1015 29.97 844 24.92 25.7 78.2 21 2.1 35.8
15:50 1015 29.97 844 24.92 25.8 78.5 23 3.4 38
15:55 1015 29.97 844 24.92 25.6 78 23 3 37.5
16:00 1015 29.97 844 24.92 25.9 78.7 18 -0.3 31.5
16:05 1015 29.97 844 24.92 26.7 80 18 0.9 33.7
16:10 1015 29.97 844 24.92 26.9 80.4 18 1.2 34.1
16:15 1015 29.97 844 24.92 27.1 80.7 19 1.7 35
16:20 1015 29.97 844 24.92 27.4 81.2 18 1.3 34.4
16:25 1015 29.97 844 24.92 27 80.6 19 1.8 35.3
16:30 1015 29.97 844 24.92 26.7 80.1 18 0.9 33.6
16:35 1015 29.97 844 24.92 26.6 79.8 20 1.7 35.1
16:40 1015 29.97 844 24.92 26.5 79.6 21 2.5 36.5
16:45 1015 29.97 844 24.92 26.5 79.8 19 1.3 34.3
16:50 1015 29.97 844 24.92 26.9 80.3 18 0.7 33.2
16:55 1015 29.97 844 24.92 26.7 80.1 18 0.6 33.1
17:00 1015 29.97 844 24.92 26.6 79.9 19 1.5 34.7
17:05 1015 29.97 844 24.92 26.6 79.9 20 2 35.6
17:10 1015 29.97 844 24.92 26.6 80 19 1.6 34.8
17:15 1015 29.97 844 24.92 26.5 79.8 21 2.6 36.7
17:20 1015 29.97 844 24.92 26.5 79.7 20 2.2 36
17:25 1015 29.97 844 24.92 26.4 79.6 22 3 37.3
17:30 1015 29.97 844 24.92 26.3 79.4 20 2.1 35.8
17:35 1015 29.97 844 24.92 25.8 78.4 24 4.1 39.4
17:40 1015 29.97 844 24.92 25.5 77.9 28 5.8 42.4
17:45 1015 29.97 844 24.92 25.5 77.9 23 3.4 38.1
17:50 1015 29.97 844 24.92 25.6 78 25 4.2 39.6
17:55 1015 29.97 844 24.92 25.7 78.2 23 3.3 38
18:00 1015 29.97 845 24.95 25.3 77.6 25 4.4 40
18:05 1016 30 845 24.95 24.9 76.9 23 2.6 36.7
18:10 1016 30 845 24.95 24.6 76.2 24 2.6 36.8
18:15 1016 30 845 24.95 24.1 75.3 25 3.3 37.9
18:20 1016 30 845 24.95 23.8 74.8 26 3.1 37.6
18:25 1016 30 845 24.95 23.8 74.8 26 3.2 37.8
18:30 1016 30 845 24.95 23.7 74.6 27 3.5 38.4
18:35 1016 30 845 24.95 23.3 73.9 30 5 41
18:40 1016 30 845 24.95 22.5 72.6 30 4.4 40
18:45 1016 30 845 24.95 22.4 72.3 30 4.1 39.4
18:50 1016 30 845 24.95 22.1 71.7 32 4.8 40.6
18:55 1016 30 845 24.95 22.1 71.7 31 4.2 39.5
19:00 1016 30 845 24.95 22.3 72.2 30 4.2 39.5
19:05 1016 30 845 24.95 22.4 72.2 30 4.2 39.5
19:10 1016 30 845 24.95 21.8 71.3 36 6.5 43.6
19:15 1016 30 845 24.95 21.2 70.1 36 5.6 42.1
19:20 1016 30 845 24.95 21.2 70.2 36 5.7 42.3
19:25 1015 29.97 845 24.95 21.4 70.5 34 5.1 41.2
19:30 1015 29.97 845 24.95 21.6 70.8 37 6.3 43.3
19:35 1015 29.97 844 24.92 21.5 70.7 34 5.1 41.3
19:40 1015 29.97 844 24.92 21.7 71 33 4.9 40.8
19:45 1015 29.97 844 24.92 21.7 71 34 5.2 41.4
19:50 1015 29.97 844 24.92 21.4 70.4 35 5.7 42.2
19:55 1015 29.97 844 24.92 21.5 70.6 35 5.4 41.8
20:00 1015 29.97 844 24.92 21.8 71.3 32 4.7 40.5
20:05 1015 29.97 844 24.92 22.3 72.1 27 2.5 36.6
20:10 1015 29.97 845 24.95 23.2 73.7 30 4.9 40.8
20:15 1015 29.97 845 24.95 22.6 72.7 28 3.1 37.6
20:20 1015 29.97 845 24.95 23.8 74.8 23 1.4 34.5
20:25 1016 30 845 24.95 24.3 75.7 27 4.1 39.4
20:30 1016 30 845 24.95 23.3 74 32 5.7 42.3
20:35 1016 30 845 24.95 22.3 72.1 33 5.6 42
20:40 1016 30 845 24.95 22.3 72.1 32 5 40.9
20:45 1016 30 845 24.95 22.3 72.2 30 4.3 39.7
20:50 1016 30 845 24.95 22.8 73 26 2.4 36.4
20:55 1016 30 845 24.95 23.2 73.7 26 2.9 37.2
21:00 1016 30 845 24.95 23.2 73.7 25 2.3 36.1
21:05 1016 30 845 24.95 23.1 73.6 26 2.7 36.9
21:10 1016 30 845 24.95 22.9 73.2 27 3 37.4
21:15 1016 30 845 24.95 22.6 72.6 27 3.1 37.5
21:20 1016 30 845 24.95 22.2 72 28 3.2 37.8
21:25 1016 30 845 24.95 22.1 71.8 29 3.2 37.8
21:30 1016 30 845 24.95 22.1 71.8 30 3.8 38.8
21:35 1016 30 845 24.95 21.9 71.5 28 3 37.4
21:40 1016 30 845 24.95 22 71.5 29 3.5 38.4
21:45 1016 30 845 24.95 21.9 71.4 29 3.3 37.9
21:50 1016 30 845 24.95 21.4 70.6 33 4.6 40.3
21:55 1016 30 845 24.95 20.7 69.3 33 4.2 39.5
22:00 1016 30 845 24.95 20.4 68.8 33 3.9 39
22:05 1016 30 845 24.95 20.1 68.1 36 4.9 40.8
22:10 1016 30 845 24.95 19.5 67.1 38 4.9 40.9
22:15 1016 30 846 24.98 19.3 66.8 40 5.4 41.7
22:20 1016 30 846 24.98 19.1 66.3 41 5.7 42.2
22:25 1016 30 846 24.98 19 66.1 40 5.1 41.1
22:30 1016 30 846 24.98 18.8 65.8 40 5 41
22:35 1017 30.03 846 24.98 18.9 66 41 5.6 42.1
22:40 1017 30.03 846 24.98 18.9 66 42 5.7 42.2
22:45 1016 30 846 24.98 18.7 65.6 43 5.9 42.5
22:50 1017 30.03 846 24.98 18.4 65.2 43 5.6 42.1
22:55 1017 30.03 846 24.98 18.2 64.8 45 6.2 43.1
23:00 1017 30.03 846 24.98 17.7 63.8 47 6.3 43.3
23:05 1017 30.03 846 24.98 17.3 63.1 46 5.7 42.3
23:10 1017 30.03 846 24.98 17.7 63.8 47 6.4 43.5
23:15 1017 30.03 846 24.98 17.5 63.6 46 5.8 42.4
23:20 1017 30.03 846 24.98 18 64.3 46 6.3 43.4
23:25 1017 30.03 847 25.01 17.8 64 49 6.9 44.4
23:30 1017 30.03 846 24.98 17.8 64 50 7.3 45.1
23:35 1017 30.03 846 24.98 17.6 63.6 51 7.3 45.2
23:40 1017 30.03 846 24.98 17.4 63.4 52 7.5 45.6
23:45 1017 30.03 846 24.98 17.2 63 54 7.9 46.3
23:50 1017 30.03 846 24.98 16.8 62.2 55 7.6 45.8
23:55 1017 30.03 846 24.98 16.6 61.9 53 7.2 44.9
24:00 1017 30.03 846 24.98 16.6 61.9 54 7.4 45.3